sensor_id;sensor_type;location;lat;lon;timestamp;temperature;humidity
40538;DHT22;27925;41.874;12.526;2023-03-23T01:35:37;14.10;86.10
40538;DHT22;27925;41.874;12.526;2023-03-23T01:38:03;14.10;86.10
40538;DHT22;27925;41.874;12.526;2023-03-23T01:40:29;14.00;85.30
40538;DHT22;27925;41.874;12.526;2023-03-23T01:42:54;14.00;85.40
40538;DHT22;27925;41.874;12.526;2023-03-23T01:45:24;14.00;85.00
40538;DHT22;27925;41.874;12.526;2023-03-23T01:48:01;14.00;84.70
40538;DHT22;27925;41.874;12.526;2023-03-23T01:50:30;13.90;85.00
40538;DHT22;27925;41.874;12.526;2023-03-23T01:53:01;13.90;84.70
40538;DHT22;27925;41.874;12.526;2023-03-23T01:55:30;13.90;84.30
40538;DHT22;27925;41.874;12.526;2023-03-23T01:57:56;13.80;84.20
40538;DHT22;27925;41.874;12.526;2023-03-23T02:00:23;13.90;84.00
40538;DHT22;27925;41.874;12.526;2023-03-23T02:02:50;13.90;83.80
40538;DHT22;27925;41.874;12.526;2023-03-23T02:05:52;13.80;83.80
40538;DHT22;27925;41.874;12.526;2023-03-23T02:08:19;13.70;84.10
40538;DHT22;27925;41.874;12.526;2023-03-23T02:10:45;13.70;85.20
40538;DHT22;27925;41.874;12.526;2023-03-23T02:13:12;13.70;84.80
40538;DHT22;27925;41.874;12.526;2023-03-23T02:16:04;13.70;84.70
40538;DHT22;27925;41.874;12.526;2023-03-23T02:18:49;13.70;84.50
40538;DHT22;27925;41.874;12.526;2023-03-23T02:21:39;13.70;84.60
40538;DHT22;27925;41.874;12.526;2023-03-23T02:32:04;13.70;84.20
40538;DHT22;27925;41.874;12.526;2023-03-23T02:37:23;13.70;84.70
40538;DHT22;27925;41.874;12.526;2023-03-23T02:39:54;13.60;84.50
40538;DHT22;27925;41.874;12.526;2023-03-23T02:42:29;13.60;84.20
40538;DHT22;27925;41.874;12.526;2023-03-23T02:44:58;13.60;84.30
40538;DHT22;27925;41.874;12.526;2023-03-23T02:47:29;13.60;84.30
40538;DHT22;27925;41.874;12.526;2023-03-23T02:49:57;13.50;84.40
40538;DHT22;27925;41.874;12.526;2023-03-23T02:52:29;13.50;84.70
40538;DHT22;27925;41.874;12.526;2023-03-23T02:54:56;13.40;84.70
40538;DHT22;27925;41.874;12.526;2023-03-23T02:57:25;13.40;84.40
40538;DHT22;27925;41.874;12.526;2023-03-23T02:59:53;13.50;84.70
40538;DHT22;27925;41.874;12.526;2023-03-23T03:13:36;13.40;84.70
40538;DHT22;27925;41.874;12.526;2023-03-23T03:21:23;13.30;84.90
40538;DHT22;27925;41.874;12.526;2023-03-23T03:23:55;13.20;85.00
40538;DHT22;27925;41.874;12.526;2023-03-23T03:26:22;13.20;85.40
40538;DHT22;27925;41.874;12.526;2023-03-23T03:28:52;13.20;85.50
40538;DHT22;27925;41.874;12.526;2023-03-23T03:31:26;13.10;86.20
40538;DHT22;27925;41.874;12.526;2023-03-23T03:33:53;13.10;85.40
40538;DHT22;27925;41.874;12.526;2023-03-23T03:36:29;13.20;85.90
40538;DHT22;27925;41.874;12.526;2023-03-23T03:39:02;13.20;85.60
40538;DHT22;27925;41.874;12.526;2023-03-23T03:41:30;13.20;85.90
40538;DHT22;27925;41.874;12.526;2023-03-23T03:43:56;13.10;85.90
40538;DHT22;27925;41.874;12.526;2023-03-23T03:46:22;13.10;85.90
40538;DHT22;27925;41.874;12.526;2023-03-23T03:48:52;13.20;86.40
40538;DHT22;27925;41.874;12.526;2023-03-23T03:51:18;13.20;86.30
40538;DHT22;27925;41.874;12.526;2023-03-23T03:53:43;13.20;86.20
40538;DHT22;27925;41.874;12.526;2023-03-23T03:56:09;13.20;86.20
40538;DHT22;27925;41.874;12.526;2023-03-23T03:58:35;13.20;86.30
40538;DHT22;27925;41.874;12.526;2023-03-23T04:01:02;13.20;86.40
40538;DHT22;27925;41.874;12.526;2023-03-23T04:03:28;13.20;86.60
40538;DHT22;27925;41.874;12.526;2023-03-23T04:05:55;13.20;86.80
40538;DHT22;27925;41.874;12.526;2023-03-23T04:08:22;13.20;86.90
40538;DHT22;27925;41.874;12.526;2023-03-23T04:10:49;13.20;87.00
40538;DHT22;27925;41.874;12.526;2023-03-23T04:13:14;13.20;87.00
40538;DHT22;27925;41.874;12.526;2023-03-23T04:15:41;13.20;86.90
40538;DHT22;27925;41.874;12.526;2023-03-23T04:18:06;13.20;87.00
40538;DHT22;27925;41.874;12.526;2023-03-23T04:20:32;13.20;87.10
40538;DHT22;27925;41.874;12.526;2023-03-23T04:23:00;13.20;87.20
40538;DHT22;27925;41.874;12.526;2023-03-23T04:25:27;13.20;87.10
40538;DHT22;27925;41.874;12.526;2023-03-23T04:27:53;13.20;86.90
40538;DHT22;27925;41.874;12.526;2023-03-23T04:30:24;13.10;87.10
40538;DHT22;27925;41.874;12.526;2023-03-23T04:32:51;13.10;87.30
40538;DHT22;27925;41.874;12.526;2023-03-23T04:35:19;13.10;87.30
40538;DHT22;27925;41.874;12.526;2023-03-23T04:37:46;13.00;87.50
40538;DHT22;27925;41.874;12.526;2023-03-23T04:40:12;13.00;87.60
40538;DHT22;27925;41.874;12.526;2023-03-23T04:42:41;13.00;87.50
40538;DHT22;27925;41.874;12.526;2023-03-23T04:45:12;12.90;87.60
40538;DHT22;27925;41.874;12.526;2023-03-23T04:47:40;12.90;87.80
40538;DHT22;27925;41.874;12.526;2023-03-23T04:50:08;12.80;87.50
40538;DHT22;27925;41.874;12.526;2023-03-23T04:52:35;12.70;87.70
40538;DHT22;27925;41.874;12.526;2023-03-23T04:55:07;12.80;87.90
40538;DHT22;27925;41.874;12.526;2023-03-23T04:57:33;12.80;87.20
40538;DHT22;27925;41.874;12.526;2023-03-23T05:00:01;12.80;87.90
40538;DHT22;27925;41.874;12.526;2023-03-23T05:02:35;12.80;87.90
40538;DHT22;27925;41.874;12.526;2023-03-23T05:05:01;12.80;87.80
40538;DHT22;27925;41.874;12.526;2023-03-23T05:07:26;12.80;87.10
40538;DHT22;27925;41.874;12.526;2023-03-23T05:09:52;12.80;87.20
40538;DHT22;27925;41.874;12.526;2023-03-23T05:12:18;12.80;87.10
40538;DHT22;27925;41.874;12.526;2023-03-23T05:14:44;12.80;87.00
40538;DHT22;27925;41.874;12.526;2023-03-23T05:17:09;12.80;87.10
40538;DHT22;27925;41.874;12.526;2023-03-23T05:19:35;12.80;87.30
40538;DHT22;27925;41.874;12.526;2023-03-23T05:22:02;12.80;87.10
40538;DHT22;27925;41.874;12.526;2023-03-23T05:24:29;12.80;86.90
40538;DHT22;27925;41.874;12.526;2023-03-23T05:26:57;12.80;87.00
40538;DHT22;27925;41.874;12.526;2023-03-23T05:29:22;12.90;87.20
40538;DHT22;27925;41.874;12.526;2023-03-23T05:31:49;12.90;87.00
40538;DHT22;27925;41.874;12.526;2023-03-23T05:34:15;12.90;86.90
40538;DHT22;27925;41.874;12.526;2023-03-23T05:36:41;12.90;87.00
40538;DHT22;27925;41.874;12.526;2023-03-23T05:39:10;12.90;87.00
40538;DHT22;27925;41.874;12.526;2023-03-23T05:41:36;12.90;87.00
40538;DHT22;27925;41.874;12.526;2023-03-23T05:44:03;12.90;87.00
40538;DHT22;27925;41.874;12.526;2023-03-23T05:46:29;12.90;86.80
40538;DHT22;27925;41.874;12.526;2023-03-23T05:48:54;12.90;87.30
40538;DHT22;27925;41.874;12.526;2023-03-23T05:51:20;12.90;86.90
40538;DHT22;27925;41.874;12.526;2023-03-23T05:53:46;12.90;86.90
40538;DHT22;27925;41.874;12.526;2023-03-23T05:56:14;13.00;87.00
40538;DHT22;27925;41.874;12.526;2023-03-23T05:58:40;13.00;87.00
40538;DHT22;27925;41.874;12.526;2023-03-23T06:01:06;13.10;86.90
40538;DHT22;27925;41.874;12.526;2023-03-23T06:03:32;13.10;86.70
40538;DHT22;27925;41.874;12.526;2023-03-23T06:05:58;13.10;86.40
40538;DHT22;27925;41.874;12.526;2023-03-23T06:08:24;13.20;86.20
40538;DHT22;27925;41.874;12.526;2023-03-23T06:10:50;13.20;86.10
40538;DHT22;27925;41.874;12.526;2023-03-23T06:13:16;13.30;85.60
40538;DHT22;27925;41.874;12.526;2023-03-23T06:15:41;13.40;85.40
40538;DHT22;27925;41.874;12.526;2023-03-23T06:18:07;13.50;85.00
40538;DHT22;27925;41.874;12.526;2023-03-23T06:20:33;13.70;84.90
40538;DHT22;27925;41.874;12.526;2023-03-23T06:23:00;13.90;84.40
40538;DHT22;27925;41.874;12.526;2023-03-23T06:25:28;14.00;83.80
40538;DHT22;27925;41.874;12.526;2023-03-23T06:27:54;14.10;82.90
40538;DHT22;27925;41.874;12.526;2023-03-23T06:30:20;14.20;82.70
40538;DHT22;27925;41.874;12.526;2023-03-23T06:32:46;14.30;82.50
40538;DHT22;27925;41.874;12.526;2023-03-23T06:35:14;14.50;82.20
40538;DHT22;27925;41.874;12.526;2023-03-23T06:37:40;14.70;81.80
40538;DHT22;27925;41.874;12.526;2023-03-23T06:40:07;15.00;81.60
40538;DHT22;27925;41.874;12.526;2023-03-23T06:42:33;15.00;81.20
40538;DHT22;27925;41.874;12.526;2023-03-23T06:44:59;15.10;80.80
40538;DHT22;27925;41.874;12.526;2023-03-23T06:47:27;15.20;80.70
40538;DHT22;27925;41.874;12.526;2023-03-23T06:49:55;15.40;80.60
40538;DHT22;27925;41.874;12.526;2023-03-23T06:52:21;15.50;79.90
40538;DHT22;27925;41.874;12.526;2023-03-23T06:54:49;15.60;79.90
40538;DHT22;27925;41.874;12.526;2023-03-23T06:57:14;15.60;79.60
40538;DHT22;27925;41.874;12.526;2023-03-23T06:59:41;15.80;79.50
40538;DHT22;27925;41.874;12.526;2023-03-23T07:02:12;15.90;79.00
40538;DHT22;27925;41.874;12.526;2023-03-23T07:04:40;15.90;78.60
40538;DHT22;27925;41.874;12.526;2023-03-23T07:07:09;16.00;78.50
40538;DHT22;27925;41.874;12.526;2023-03-23T07:09:36;16.10;78.30
40538;DHT22;27925;41.874;12.526;2023-03-23T07:12:02;16.20;77.70
40538;DHT22;27925;41.874;12.526;2023-03-23T07:14:28;16.30;77.60
40538;DHT22;27925;41.874;12.526;2023-03-23T07:16:54;16.40;77.50
40538;DHT22;27925;41.874;12.526;2023-03-23T07:19:20;16.50;76.80
40538;DHT22;27925;41.874;12.526;2023-03-23T07:21:46;16.70;76.70
40538;DHT22;27925;41.874;12.526;2023-03-23T07:24:12;16.80;75.90
40538;DHT22;27925;41.874;12.526;2023-03-23T07:26:41;16.90;75.60
40538;DHT22;27925;41.874;12.526;2023-03-23T07:29:08;17.00;75.00
40538;DHT22;27925;41.874;12.526;2023-03-23T07:31:33;17.00;74.60
40538;DHT22;27925;41.874;12.526;2023-03-23T07:33:59;17.00;74.10
40538;DHT22;27925;41.874;12.526;2023-03-23T07:36:26;17.00;74.00
40538;DHT22;27925;41.874;12.526;2023-03-23T07:38:52;17.00;73.80
40538;DHT22;27925;41.874;12.526;2023-03-23T07:41:18;17.00;73.30
40538;DHT22;27925;41.874;12.526;2023-03-23T07:43:45;17.00;73.50
40538;DHT22;27925;41.874;12.526;2023-03-23T07:46:11;17.00;73.30
40538;DHT22;27925;41.874;12.526;2023-03-23T07:48:37;17.10;73.10
40538;DHT22;27925;41.874;12.526;2023-03-23T07:51:03;17.20;72.80
40538;DHT22;27925;41.874;12.526;2023-03-23T07:53:29;17.10;72.60
40538;DHT22;27925;41.874;12.526;2023-03-23T07:55:55;17.10;72.20
40538;DHT22;27925;41.874;12.526;2023-03-23T07:58:21;17.10;71.80
40538;DHT22;27925;41.874;12.526;2023-03-23T08:00:47;17.00;71.90
40538;DHT22;27925;41.874;12.526;2023-03-23T08:03:14;17.00;71.90
40538;DHT22;27925;41.874;12.526;2023-03-23T08:05:41;16.90;71.90
40538;DHT22;27925;41.874;12.526;2023-03-23T08:08:08;16.90;71.70
40538;DHT22;27925;41.874;12.526;2023-03-23T08:10:35;16.90;71.80
40538;DHT22;27925;41.874;12.526;2023-03-23T08:13:01;17.00;72.00
40538;DHT22;27925;41.874;12.526;2023-03-23T08:15:28;17.10;71.70
40538;DHT22;27925;41.874;12.526;2023-03-23T08:17:54;17.10;71.80
40538;DHT22;27925;41.874;12.526;2023-03-23T08:20:21;17.10;71.30
40538;DHT22;27925;41.874;12.526;2023-03-23T08:22:55;17.20;71.50
40538;DHT22;27925;41.874;12.526;2023-03-23T08:25:23;17.20;70.90
40538;DHT22;27925;41.874;12.526;2023-03-23T08:27:50;17.20;71.10
40538;DHT22;27925;41.874;12.526;2023-03-23T08:30:18;17.30;71.40
40538;DHT22;27925;41.874;12.526;2023-03-23T08:32:48;17.30;70.70
40538;DHT22;27925;41.874;12.526;2023-03-23T08:35:15;17.30;70.80
40538;DHT22;27925;41.874;12.526;2023-03-23T08:37:41;17.30;70.70
40538;DHT22;27925;41.874;12.526;2023-03-23T08:40:09;17.40;70.70
40538;DHT22;27925;41.874;12.526;2023-03-23T08:42:37;17.40;70.40
40538;DHT22;27925;41.874;12.526;2023-03-23T08:45:08;17.40;69.70
40538;DHT22;27925;41.874;12.526;2023-03-23T08:47:34;17.40;70.00
40538;DHT22;27925;41.874;12.526;2023-03-23T08:50:01;17.40;69.40
40538;DHT22;27925;41.874;12.526;2023-03-23T08:52:27;17.30;68.80
40538;DHT22;27925;41.874;12.526;2023-03-23T08:54:54;17.30;69.00
40538;DHT22;27925;41.874;12.526;2023-03-23T08:57:19;17.40;69.20
40538;DHT22;27925;41.874;12.526;2023-03-23T08:59:45;17.40;68.90
40538;DHT22;27925;41.874;12.526;2023-03-23T09:02:12;17.40;68.80
40538;DHT22;27925;41.874;12.526;2023-03-23T09:04:41;17.50;68.70
40538;DHT22;27925;41.874;12.526;2023-03-23T09:07:10;17.50;68.30
40538;DHT22;27925;41.874;12.526;2023-03-23T09:09:38;17.50;67.80
40538;DHT22;27925;41.874;12.526;2023-03-23T09:12:06;17.50;67.20
40538;DHT22;27925;41.874;12.526;2023-03-23T09:14:32;17.50;66.80
40538;DHT22;27925;41.874;12.526;2023-03-23T09:16:58;17.50;66.80
40538;DHT22;27925;41.874;12.526;2023-03-23T09:19:24;17.50;66.60
40538;DHT22;27925;41.874;12.526;2023-03-23T09:21:50;17.50;66.60
40538;DHT22;27925;41.874;12.526;2023-03-23T09:24:16;17.60;66.60
40538;DHT22;27925;41.874;12.526;2023-03-23T09:26:42;17.60;66.30
40538;DHT22;27925;41.874;12.526;2023-03-23T09:29:07;17.70;66.30
40538;DHT22;27925;41.874;12.526;2023-03-23T09:31:33;17.80;66.50
40538;DHT22;27925;41.874;12.526;2023-03-23T09:34:02;17.90;66.60
40538;DHT22;27925;41.874;12.526;2023-03-23T09:36:29;18.00;66.70
40538;DHT22;27925;41.874;12.526;2023-03-23T09:38:55;18.00;67.10
40538;DHT22;27925;41.874;12.526;2023-03-23T09:50:02;18.40;67.50
40538;DHT22;27925;41.874;12.526;2023-03-23T09:52:43;18.50;67.50
40538;DHT22;27925;41.874;12.526;2023-03-23T09:55:14;18.50;67.30
40538;DHT22;27925;41.874;12.526;2023-03-23T10:00:38;18.60;66.50
40538;DHT22;27925;41.874;12.526;2023-03-23T10:05:51;18.80;65.90
40538;DHT22;27925;41.874;12.526;2023-03-23T10:08:26;18.90;65.60
40538;DHT22;27925;41.874;12.526;2023-03-23T10:16:18;19.10;63.20
40538;DHT22;27925;41.874;12.526;2023-03-23T10:21:23;19.20;62.60
40538;DHT22;27925;41.874;12.526;2023-03-23T10:23:58;19.30;61.90
40538;DHT22;27925;41.874;12.526;2023-03-23T10:26:28;19.40;62.20
40538;DHT22;27925;41.874;12.526;2023-03-23T10:28:59;19.50;62.20
40538;DHT22;27925;41.874;12.526;2023-03-23T10:31:34;19.60;61.40
40538;DHT22;27925;41.874;12.526;2023-03-23T10:34:32;19.60;61.40
40538;DHT22;27925;41.874;12.526;2023-03-23T10:37:18;19.80;61.90
40538;DHT22;27925;41.874;12.526;2023-03-23T10:39:50;19.80;61.80
40538;DHT22;27925;41.874;12.526;2023-03-23T10:42:31;20.00;62.00
40538;DHT22;27925;41.874;12.526;2023-03-23T10:45:12;20.00;61.90
40538;DHT22;27925;41.874;12.526;2023-03-23T10:47:46;20.10;61.60
40538;DHT22;27925;41.874;12.526;2023-03-23T10:50:18;20.20;61.80
40538;DHT22;27925;41.874;12.526;2023-03-23T10:52:50;20.30;61.50
40538;DHT22;27925;41.874;12.526;2023-03-23T10:55:20;20.40;61.20
40538;DHT22;27925;41.874;12.526;2023-03-23T10:58:00;20.40;61.00
40538;DHT22;27925;41.874;12.526;2023-03-23T11:00:30;20.50;60.10
40538;DHT22;27925;41.874;12.526;2023-03-23T11:03:20;20.50;60.20
40538;DHT22;27925;41.874;12.526;2023-03-23T11:05:59;20.50;59.90
40538;DHT22;27925;41.874;12.526;2023-03-23T11:08:32;20.50;60.00
40538;DHT22;27925;41.874;12.526;2023-03-23T11:11:15;20.60;59.80
40538;DHT22;27925;41.874;12.526;2023-03-23T11:13:49;20.70;59.50
40538;DHT22;27925;41.874;12.526;2023-03-23T11:16:31;20.80;60.20
40538;DHT22;27925;41.874;12.526;2023-03-23T11:18:58;20.90;59.10
40538;DHT22;27925;41.874;12.526;2023-03-23T11:21:25;20.90;60.60
40538;DHT22;27925;41.874;12.526;2023-03-23T11:23:58;21.00;59.40
40538;DHT22;27925;41.874;12.526;2023-03-23T11:26:27;21.00;59.70
40538;DHT22;27925;41.874;12.526;2023-03-23T11:29:08;21.10;59.50
40538;DHT22;27925;41.874;12.526;2023-03-23T11:31:43;21.20;58.40
40538;DHT22;27925;41.874;12.526;2023-03-23T11:34:25;21.30;58.80
40538;DHT22;27925;41.874;12.526;2023-03-23T11:36:57;21.40;58.80
40538;DHT22;27925;41.874;12.526;2023-03-23T11:39:27;21.50;58.20
40538;DHT22;27925;41.874;12.526;2023-03-23T11:41:55;21.60;57.90
40538;DHT22;27925;41.874;12.526;2023-03-23T11:44:24;21.60;57.80
40538;DHT22;27925;41.874;12.526;2023-03-23T11:50:28;21.70;56.50
40538;DHT22;27925;41.874;12.526;2023-03-23T11:53:02;21.70;56.20
40538;DHT22;27925;41.874;12.526;2023-03-23T11:58:13;21.90;57.10
40538;DHT22;27925;41.874;12.526;2023-03-23T12:00:51;22.00;57.00
40538;DHT22;27925;41.874;12.526;2023-03-23T12:03:20;22.10;57.30
40538;DHT22;27925;41.874;12.526;2023-03-23T12:05:51;22.10;57.10
40538;DHT22;27925;41.874;12.526;2023-03-23T12:17:39;22.30;54.90
40538;DHT22;27925;41.874;12.526;2023-03-23T12:28:17;22.60;55.30
40538;DHT22;27925;41.874;12.526;2023-03-23T12:33:48;22.60;53.00
40538;DHT22;27925;41.874;12.526;2023-03-23T12:41:49;22.60;51.80
40538;DHT22;27925;41.874;12.526;2023-03-23T12:44:24;22.60;52.50
40538;DHT22;27925;41.874;12.526;2023-03-23T12:47:03;22.60;52.20
40538;DHT22;27925;41.874;12.526;2023-03-23T12:49:40;22.70;51.10
40538;DHT22;27925;41.874;12.526;2023-03-23T12:52:23;22.80;51.00
40538;DHT22;27925;41.874;12.526;2023-03-23T13:03:03;23.00;51.00
40538;DHT22;27925;41.874;12.526;2023-03-23T13:05:44;23.10;51.10
40538;DHT22;27925;41.874;12.526;2023-03-23T13:08:16;23.10;50.30
40538;DHT22;27925;41.874;12.526;2023-03-23T13:10:48;23.10;50.80
40538;DHT22;27925;41.874;12.526;2023-03-23T13:13:21;23.10;50.70
40538;DHT22;27925;41.874;12.526;2023-03-23T13:18:19;23.00;50.10
40538;DHT22;27925;41.874;12.526;2023-03-23T13:26:10;23.00;49.50
40538;DHT22;27925;41.874;12.526;2023-03-23T13:29:01;23.00;49.40
40538;DHT22;27925;41.874;12.526;2023-03-23T13:31:31;23.00;49.10
40538;DHT22;27925;41.874;12.526;2023-03-23T13:34:05;23.10;49.90
40538;DHT22;27925;41.874;12.526;2023-03-23T13:36:40;23.20;48.90
40538;DHT22;27925;41.874;12.526;2023-03-23T13:39:34;23.30;49.70
40538;DHT22;27925;41.874;12.526;2023-03-23T13:42:16;23.20;48.10
40538;DHT22;27925;41.874;12.526;2023-03-23T13:55:39;23.20;48.50
40538;DHT22;27925;41.874;12.526;2023-03-23T13:58:11;23.20;48.50
40538;DHT22;27925;41.874;12.526;2023-03-23T14:00:50;23.20;49.90
40538;DHT22;27925;41.874;12.526;2023-03-23T14:03:31;23.10;48.30
40538;DHT22;27925;41.874;12.526;2023-03-23T14:11:01;23.00;49.20
40538;DHT22;27925;41.874;12.526;2023-03-23T14:13:43;23.00;48.90
40538;DHT22;27925;41.874;12.526;2023-03-23T14:16:19;22.90;48.90
40538;DHT22;27925;41.874;12.526;2023-03-23T14:21:44;23.00;46.70
40538;DHT22;27925;41.874;12.526;2023-03-23T14:26:52;22.90;45.90
40538;DHT22;27925;41.874;12.526;2023-03-23T14:29:20;22.90;46.90
40538;DHT22;27925;41.874;12.526;2023-03-23T14:31:56;22.80;46.60
40538;DHT22;27925;41.874;12.526;2023-03-23T14:34:25;22.80;46.30
40538;DHT22;27925;41.874;12.526;2023-03-23T14:36:52;22.70;46.60
40538;DHT22;27925;41.874;12.526;2023-03-23T14:42:13;22.80;45.70
40538;DHT22;27925;41.874;12.526;2023-03-23T14:44:42;22.90;46.30
40538;DHT22;27925;41.874;12.526;2023-03-23T14:47:16;22.90;47.50
40538;DHT22;27925;41.874;12.526;2023-03-23T14:49:45;22.90;46.80
40538;DHT22;27925;41.874;12.526;2023-03-23T14:52:16;22.80;46.90
40538;DHT22;27925;41.874;12.526;2023-03-23T14:54:43;22.70;46.90
40538;DHT22;27925;41.874;12.526;2023-03-23T14:57:25;22.70;47.50
40538;DHT22;27925;41.874;12.526;2023-03-23T14:59:51;22.60;47.00
40538;DHT22;27925;41.874;12.526;2023-03-23T15:02:31;22.60;48.10
40538;DHT22;27925;41.874;12.526;2023-03-23T15:05:13;22.70;47.30
40538;DHT22;27925;41.874;12.526;2023-03-23T15:07:41;22.70;49.30
40538;DHT22;27925;41.874;12.526;2023-03-23T15:10:13;22.60;49.30
40538;DHT22;27925;41.874;12.526;2023-03-23T15:12:39;22.60;49.50
40538;DHT22;27925;41.874;12.526;2023-03-23T15:15:07;22.60;49.60
40538;DHT22;27925;41.874;12.526;2023-03-23T15:17:46;22.50;49.20
40538;DHT22;27925;41.874;12.526;2023-03-23T15:23:25;22.30;48.20
40538;DHT22;27925;41.874;12.526;2023-03-23T15:25:53;22.30;49.70
40538;DHT22;27925;41.874;12.526;2023-03-23T15:28:30;22.30;49.70
40538;DHT22;27925;41.874;12.526;2023-03-23T15:31:00;22.30;49.60
40538;DHT22;27925;41.874;12.526;2023-03-23T15:33:34;22.20;49.90
40538;DHT22;27925;41.874;12.526;2023-03-23T15:36:07;22.20;49.90
40538;DHT22;27925;41.874;12.526;2023-03-23T15:38:34;22.20;50.20
40538;DHT22;27925;41.874;12.526;2023-03-23T15:41:06;22.10;50.00
40538;DHT22;27925;41.874;12.526;2023-03-23T15:43:58;22.10;49.70
40538;DHT22;27925;41.874;12.526;2023-03-23T15:46:26;22.10;49.70
40538;DHT22;27925;41.874;12.526;2023-03-23T15:51:26;21.90;48.10
40538;DHT22;27925;41.874;12.526;2023-03-23T15:53:53;21.80;48.60
40538;DHT22;27925;41.874;12.526;2023-03-23T15:56:19;21.80;48.70
40538;DHT22;27925;41.874;12.526;2023-03-23T15:58:46;21.70;48.60
40538;DHT22;27925;41.874;12.526;2023-03-23T16:01:17;21.70;48.90
40538;DHT22;27925;41.874;12.526;2023-03-23T16:03:58;21.80;48.90
40538;DHT22;27925;41.874;12.526;2023-03-23T16:06:27;21.70;48.40
40538;DHT22;27925;41.874;12.526;2023-03-23T16:08:54;21.70;49.00
40538;DHT22;27925;41.874;12.526;2023-03-23T16:11:20;21.70;48.80
40538;DHT22;27925;41.874;12.526;2023-03-23T16:13:46;21.70;48.90
40538;DHT22;27925;41.874;12.526;2023-03-23T16:16:16;21.60;48.90
40538;DHT22;27925;41.874;12.526;2023-03-23T16:18:42;21.50;48.80
40538;DHT22;27925;41.874;12.526;2023-03-23T16:21:08;21.50;48.90
40538;DHT22;27925;41.874;12.526;2023-03-23T16:23:34;21.50;48.80
40538;DHT22;27925;41.874;12.526;2023-03-23T16:26:00;21.40;48.80
40538;DHT22;27925;41.874;12.526;2023-03-23T16:28:25;21.40;48.80
40538;DHT22;27925;41.874;12.526;2023-03-23T16:30:51;21.30;48.60
40538;DHT22;27925;41.874;12.526;2023-03-23T16:33:17;21.20;48.60
40538;DHT22;27925;41.874;12.526;2023-03-23T16:35:42;21.20;48.60
40538;DHT22;27925;41.874;12.526;2023-03-23T16:38:13;21.10;48.40
40538;DHT22;27925;41.874;12.526;2023-03-23T16:40:41;21.00;48.80
40538;DHT22;27925;41.874;12.526;2023-03-23T16:43:08;21.00;49.10
40538;DHT22;27925;41.874;12.526;2023-03-23T16:45:33;20.90;49.00
40538;DHT22;27925;41.874;12.526;2023-03-23T16:47:59;20.80;49.80
40538;DHT22;27925;41.874;12.526;2023-03-23T16:50:27;20.70;49.10
40538;DHT22;27925;41.874;12.526;2023-03-23T16:52:54;20.60;49.40
40538;DHT22;27925;41.874;12.526;2023-03-23T16:55:20;20.60;49.40
40538;DHT22;27925;41.874;12.526;2023-03-23T16:57:46;20.50;49.70
40538;DHT22;27925;41.874;12.526;2023-03-23T17:00:17;20.40;49.90
40538;DHT22;27925;41.874;12.526;2023-03-23T17:02:50;20.30;50.00
40538;DHT22;27925;41.874;12.526;2023-03-23T17:05:18;20.20;50.20
40538;DHT22;27925;41.874;12.526;2023-03-23T17:07:45;20.20;51.00
40538;DHT22;27925;41.874;12.526;2023-03-23T17:10:12;20.00;50.40
40538;DHT22;27925;41.874;12.526;2023-03-23T17:12:39;19.90;50.70
40538;DHT22;27925;41.874;12.526;2023-03-23T17:15:06;19.90;51.10
40538;DHT22;27925;41.874;12.526;2023-03-23T17:17:32;19.80;50.80
40538;DHT22;27925;41.874;12.526;2023-03-23T17:19:58;19.70;51.00
40538;DHT22;27925;41.874;12.526;2023-03-23T17:22:24;19.60;51.30
40538;DHT22;27925;41.874;12.526;2023-03-23T17:24:50;19.50;51.40
40538;DHT22;27925;41.874;12.526;2023-03-23T17:27:18;19.40;51.70
40538;DHT22;27925;41.874;12.526;2023-03-23T17:29:44;19.30;52.20
40538;DHT22;27925;41.874;12.526;2023-03-23T17:32:10;19.20;52.20
40538;DHT22;27925;41.874;12.526;2023-03-23T17:34:37;19.10;52.40
40538;DHT22;27925;41.874;12.526;2023-03-23T17:37:03;19.10;52.60
40538;DHT22;27925;41.874;12.526;2023-03-23T17:39:30;19.10;53.00
40538;DHT22;27925;41.874;12.526;2023-03-23T17:41:56;19.00;52.80
40538;DHT22;27925;41.874;12.526;2023-03-23T17:44:23;18.90;52.90
40538;DHT22;27925;41.874;12.526;2023-03-23T17:46:49;18.90;53.50
40538;DHT22;27925;41.874;12.526;2023-03-23T17:49:15;18.80;53.30
40538;DHT22;27925;41.874;12.526;2023-03-23T17:51:40;18.80;53.80
40538;DHT22;27925;41.874;12.526;2023-03-23T17:54:06;18.70;54.00
40538;DHT22;27925;41.874;12.526;2023-03-23T17:56:32;18.70;54.20
40538;DHT22;27925;41.874;12.526;2023-03-23T17:58:58;18.60;54.70
40538;DHT22;27925;41.874;12.526;2023-03-23T18:01:24;18.60;54.90
40538;DHT22;27925;41.874;12.526;2023-03-23T18:03:49;18.60;55.20
40538;DHT22;27925;41.874;12.526;2023-03-23T18:06:15;18.50;55.40
40538;DHT22;27925;41.874;12.526;2023-03-23T18:08:41;18.40;55.60
40538;DHT22;27925;41.874;12.526;2023-03-23T18:11:07;18.40;56.20
40538;DHT22;27925;41.874;12.526;2023-03-23T18:13:34;18.30;56.40
40538;DHT22;27925;41.874;12.526;2023-03-23T18:16:00;18.30;56.50
40538;DHT22;27925;41.874;12.526;2023-03-23T18:18:28;18.20;56.60
40538;DHT22;27925;41.874;12.526;2023-03-23T18:21:00;18.20;57.00
40538;DHT22;27925;41.874;12.526;2023-03-23T18:23:26;18.10;57.00
40538;DHT22;27925;41.874;12.526;2023-03-23T18:25:52;18.00;57.00
40538;DHT22;27925;41.874;12.526;2023-03-23T18:28:20;18.00;56.90
40538;DHT22;27925;41.874;12.526;2023-03-23T18:30:45;18.00;57.30
